createdAt,value
2019-02-09T00:04:48.820Z,63.00
2019-02-09T00:09:55.835Z,60.80
2019-02-09T00:15:05.692Z,57.00
2019-02-09T00:20:11.587Z,61.00
2019-02-09T00:25:19.276Z,66.70
2019-02-09T00:30:27.957Z,64.25
2019-02-09T00:35:32.419Z,57.00
2019-02-09T00:40:36.843Z,59.00
2019-02-09T00:45:43.996Z,61.50
2019-02-09T00:50:51.695Z,56.91
2019-02-09T00:55:55.479Z,59.00
2019-02-09T01:01:02.695Z,64.60
2019-02-09T01:06:07.002Z,61.00
2019-02-09T01:11:18.787Z,63.30
2019-02-09T01:16:22.361Z,65.60
2019-02-09T01:21:25.826Z,67.00
2019-02-09T01:26:28.744Z,65.00
2019-02-09T01:31:37.487Z,73.08
2019-02-09T01:36:42.503Z,72.00
2019-02-09T01:41:50.558Z,72.82
2019-02-09T01:47:01.746Z,75.36
2019-02-09T01:52:07.355Z,73.00
2019-02-09T01:57:16.383Z,73.83
2019-02-09T02:02:20.890Z,72.67
2019-02-09T02:07:30.619Z,75.23
2019-02-09T02:12:35.447Z,71.00
2019-02-09T02:17:45.975Z,75.33
2019-02-09T02:22:49.991Z,77.00
2019-02-09T02:27:58.757Z,76.42
2019-02-09T02:33:03.960Z,80.00
2019-02-09T02:38:13.727Z,82.75
2019-02-09T02:43:22.480Z,87.50
2019-02-09T02:48:25.641Z,88.25
2019-02-09T02:53:35.323Z,84.17
2019-02-09T02:58:38.942Z,85.60
2019-02-09T03:03:47.855Z,84.67
2019-02-09T03:08:56.716Z,83.08
2019-02-09T03:14:01.057Z,86.50
2019-02-09T03:19:09.852Z,84.58
2019-02-09T03:24:22.138Z,79.36
2019-02-09T03:29:31.856Z,80.67
2019-02-09T03:34:38.451Z,87.62
2019-02-09T03:39:41.602Z,81.00
2019-02-09T03:44:46.713Z,80.83
2019-02-09T03:49:53.036Z,90.75
2019-02-09T03:54:57.670Z,84.33
2019-02-09T04:00:01.955Z,81.00
2019-02-09T04:05:08.697Z,83.80
2019-02-09T04:10:14.166Z,87.00
2019-02-09T04:15:20.394Z,92.00
2019-02-09T04:20:25.143Z,85.00
2019-02-09T04:25:29.483Z,84.60
2019-02-09T04:30:34.605Z,83.50
2019-02-09T04:35:46.687Z,81.00
2019-02-09T04:40:57.455Z,83.00
2019-02-09T04:46:03.463Z,89.00
2019-02-09T04:51:07.150Z,87.00
2019-02-09T04:56:12.822Z,85.86
2019-02-09T05:01:25.782Z,84.25
2019-02-09T05:06:50.639Z,83.69
2019-02-09T05:12:11.913Z,87.46
2019-02-09T05:17:16.046Z,85.00
2019-02-09T05:22:19.811Z,81.00
2019-02-09T05:27:24.243Z,81.80
2019-02-09T05:32:29.102Z,86.00
2019-02-09T05:37:40.502Z,86.00
2019-02-09T05:42:44.402Z,93.00
2019-02-09T05:47:53.062Z,88.75
2019-02-09T05:53:05.719Z,88.94
2019-02-09T05:58:09.684Z,95.75
2019-02-09T06:03:13.482Z,89.60
2019-02-09T06:08:17.894Z,84.17
2019-02-09T06:13:21.384Z,87.00
2019-02-09T06:18:25.544Z,86.60
2019-02-09T06:23:29.801Z,83.00
2019-02-09T06:28:39.624Z,89.08
2019-02-09T06:33:43.586Z,88.00
2019-02-09T06:38:49.509Z,86.83
2019-02-09T06:43:58.501Z,78.42
2019-02-09T06:49:02.442Z,78.20
2019-02-09T06:54:11.522Z,67.00
2019-02-09T06:59:20.616Z,41.88
2019-02-09T07:04:27.766Z,34.13
2019-02-09T07:09:31.578Z,57.00
2019-02-09T07:14:35.449Z,68.80
2019-02-09T07:19:39.495Z,75.00
2019-02-09T07:24:48.625Z,75.00
2019-02-09T07:29:52.370Z,104.40
2019-02-09T07:34:55.971Z,92.80
2019-02-09T07:40:04.787Z,69.10
2019-02-09T07:45:13.896Z,35.00
2019-02-09T07:50:19.280Z,25.00
2019-02-09T07:55:23.276Z,20.00
2019-02-09T08:00:29.698Z,18.75
2019-02-09T08:05:33.440Z,15.00
2019-02-09T08:10:39.792Z,17.00
2019-02-09T08:15:47.899Z,16.57
2019-02-09T08:20:52.632Z,18.00
2019-02-09T08:26:00.198Z,16.00
2019-02-09T08:31:04.449Z,16.00
2019-02-09T08:36:08.354Z,18.50
2019-02-09T08:41:11.538Z,16.50
2019-02-09T08:46:15.471Z,18.50
2019-02-09T08:51:23.495Z,21.87
2019-02-09T08:56:32.450Z,17.50
2019-02-09T09:01:37.167Z,17.50
2019-02-09T09:06:40.226Z,15.00
2019-02-09T09:11:48.499Z,18.00
2019-02-09T09:16:52.458Z,18.00
2019-02-09T09:21:58.061Z,17.62
2019-02-09T09:27:02.806Z,17.00
2019-02-09T09:32:10.072Z,17.71
2019-02-09T09:37:15.596Z,17.75
2019-02-09T09:42:22.570Z,17.50
2019-02-09T09:47:31.518Z,21.12
2019-02-09T09:52:36.211Z,17.50
2019-02-09T09:57:44.463Z,22.00
2019-02-09T10:02:49.556Z,19.00
2019-02-09T10:07:53.635Z,19.50
2019-02-09T10:12:58.018Z,19.67
2019-02-09T10:18:04.183Z,19.25
2019-02-09T10:23:07.392Z,13.00
2019-02-09T10:28:11.567Z,20.00
2019-02-09T10:33:20.035Z,27.13
2019-02-09T10:38:28.044Z,27.62
2019-02-09T10:43:36.267Z,26.00
2019-02-09T10:48:42.477Z,25.88
2019-02-09T10:53:47.855Z,24.50
2019-02-09T10:58:54.010Z,22.37
2019-02-09T11:03:57.519Z,28.50
2019-02-09T11:09:05.230Z,19.87
2019-02-09T11:14:13.816Z,20.00
2019-02-09T11:19:21.859Z,19.25
2019-02-09T11:24:27.939Z,15.14
2019-02-09T11:29:32.355Z,20.00
2019-02-09T11:34:40.778Z,23.38
2019-02-09T11:39:46.818Z,21.75
2019-02-09T11:44:50.364Z,20.00
2019-02-09T11:49:56.387Z,15.88
2019-02-09T11:55:00.595Z,18.00
2019-02-09T12:00:09.206Z,16.50
2019-02-09T12:05:16.050Z,23.62
2019-02-09T12:10:21.811Z,20.25
2019-02-09T12:15:36.318Z,23.50
2019-02-09T12:20:40.084Z,20.00
2019-02-09T12:25:47.846Z,15.38
2019-02-09T12:30:52.679Z,14.29
2019-02-09T12:35:55.878Z,23.00
2019-02-09T12:41:03.582Z,17.25
2019-02-09T12:46:08.132Z,14.86
2019-02-09T12:51:15.225Z,13.50
2019-02-09T12:56:21.636Z,11.25
2019-02-09T13:01:25.150Z,18.00
2019-02-09T13:06:28.364Z,11.00
2019-02-09T13:11:34.273Z,10.29
2019-02-09T13:16:41.315Z,16.12
2019-02-09T13:21:50.730Z,17.64
2019-02-09T13:26:55.986Z,14.43
2019-02-09T13:32:00.082Z,14.50
2019-02-09T13:37:06.415Z,13.88
2019-02-09T13:42:09.940Z,17.00
2019-02-09T13:47:12.854Z,9.00
2019-02-09T13:52:16.427Z,13.75
2019-02-09T13:57:22.505Z,15.63
2019-02-09T14:02:30.367Z,19.00
2019-02-09T14:07:33.822Z,13.00
2019-02-09T14:12:40.148Z,11.57
2019-02-09T14:17:43.629Z,15.25
2019-02-09T14:22:49.216Z,13.25
2019-02-09T14:27:53.336Z,12.33
2019-02-09T14:33:00.143Z,12.25
2019-02-09T14:38:06.977Z,17.00
2019-02-09T14:43:13.826Z,21.12
2019-02-09T14:48:21.978Z,14.38
2019-02-09T14:53:26.139Z,17.67
2019-02-09T14:58:29.344Z,15.00
2019-02-09T15:03:37.745Z,18.25
2019-02-09T15:08:42.458Z,16.75
2019-02-09T15:13:48.061Z,16.00
2019-02-09T15:18:53.725Z,15.14
2019-02-09T15:24:01.892Z,17.00
2019-02-09T15:29:09.371Z,14.71
2019-02-09T15:34:15.916Z,12.75
2019-02-09T15:39:20.750Z,12.50
2019-02-09T15:44:26.434Z,15.25
2019-02-09T15:49:34.645Z,12.37
2019-02-09T15:54:40.440Z,15.43
2019-02-09T15:59:47.002Z,20.62
2019-02-09T16:04:52.444Z,14.00
2019-02-09T16:09:56.554Z,16.33
2019-02-09T16:15:11.463Z,19.25
2019-02-09T16:20:16.151Z,13.33
2019-02-09T16:25:19.741Z,16.00
2019-02-09T16:30:26.871Z,18.00
2019-02-09T16:35:35.382Z,19.25
2019-02-09T16:40:40.078Z,19.00
2019-02-09T16:45:48.539Z,20.88
2019-02-09T16:50:55.082Z,26.62
2019-02-09T16:56:04.788Z,21.78
2019-02-09T17:01:12.038Z,25.50
2019-02-09T17:06:17.066Z,27.75
2019-02-09T17:11:26.354Z,23.00
2019-02-09T17:16:35.576Z,21.62
2019-02-09T17:21:44.641Z,22.00
2019-02-09T17:26:53.928Z,22.00
2019-02-09T17:32:02.947Z,22.25
2019-02-09T17:37:06.923Z,22.33
2019-02-09T17:42:15.345Z,21.62
2019-02-09T17:47:24.338Z,21.25
2019-02-09T17:52:31.846Z,22.00
2019-02-09T17:57:36.070Z,22.00
2019-02-09T18:02:44.422Z,19.50
2019-02-09T18:07:52.718Z,27.37
2019-02-09T18:13:02.028Z,25.00
2019-02-09T18:18:11.154Z,22.00
2019-02-09T18:23:15.314Z,22.00
2019-02-09T18:28:21.382Z,19.12
2019-02-09T18:33:26.282Z,26.75
2019-02-09T18:38:30.263Z,18.75
2019-02-09T18:43:36.720Z,19.78
2019-02-09T18:48:44.166Z,20.37
2019-02-09T18:53:51.503Z,21.62
2019-02-09T18:59:00.509Z,22.00
2019-02-09T19:04:07.782Z,23.00
2019-02-09T19:09:15.150Z,21.00
2019-02-09T19:14:19.539Z,22.00
2019-02-09T19:19:25.876Z,21.78
2019-02-09T19:24:34.810Z,21.25
2019-02-09T19:29:39.862Z,20.00
2019-02-09T19:34:50.416Z,19.33
2019-02-09T19:39:57.734Z,24.00
2019-02-09T19:45:08.456Z,22.00
2019-02-09T19:50:17.007Z,21.37
2019-02-09T19:55:27.768Z,19.11
2019-02-09T20:00:36.001Z,21.62
2019-02-09T20:05:40.759Z,21.86
2019-02-09T20:10:49.236Z,21.87
2019-02-09T20:15:53.586Z,20.33
2019-02-09T20:21:02.084Z,21.25
2019-02-09T20:26:06.334Z,20.00
2019-02-09T20:31:14.760Z,20.62
2019-02-09T20:36:18.203Z,20.00
2019-02-09T20:41:21.734Z,20.00
2019-02-09T20:46:30.183Z,21.12
2019-02-09T20:51:38.007Z,20.00
2019-02-09T20:56:47.353Z,19.75
2019-02-09T21:01:52.447Z,21.75
2019-02-09T21:06:59.884Z,24.33
2019-02-09T21:12:07.942Z,22.78
2019-02-09T21:17:15.230Z,20.12
2019-02-09T21:22:19.982Z,20.00
2019-02-09T21:27:23.937Z,18.00
2019-02-09T21:32:28.031Z,18.75
2019-02-09T21:37:36.446Z,18.75
2019-02-09T21:42:41.107Z,20.00
2019-02-09T21:47:44.199Z,16.00
2019-02-09T21:52:47.741Z,20.00
2019-02-09T21:57:52.026Z,20.00
2019-02-09T22:02:55.947Z,19.00
2019-02-09T22:08:00.787Z,20.00
2019-02-09T22:13:05.337Z,20.00
2019-02-09T22:18:09.375Z,21.50
2019-02-09T22:23:17.810Z,22.75
2019-02-09T22:28:24.430Z,24.87
2019-02-09T22:33:30.887Z,24.37
2019-02-09T22:38:38.336Z,17.00
2019-02-09T22:43:42.943Z,20.00
2019-02-09T22:48:46.398Z,16.67
2019-02-09T22:53:49.802Z,19.00
2019-02-09T22:58:54.937Z,16.14
2019-02-09T23:04:04.486Z,20.00
2019-02-09T23:09:13.873Z,17.00
2019-02-09T23:14:18.524Z,18.00
2019-02-09T23:19:27.320Z,17.37
2019-02-09T23:24:33.482Z,17.62
2019-02-09T23:29:37.827Z,18.25
2019-02-09T23:34:44.932Z,20.11
2019-02-09T23:39:52.837Z,17.00
2019-02-09T23:44:56.686Z,18.00
2019-02-09T23:50:04.648Z,16.12
2019-02-09T23:55:13.379Z,16.62
